Time;durP1;ratioP1;P1;durP2;ratioP2;P2;SDS_P1;SDS_P2;PMS_P1;PMS_P2;Temp;Humidity;BMP_temperature;BMP_pressure;BME280_temperature;BME280_humidity;BME280_pressure;Samples;Min_cycle;Max_cycle;Signal;HPM_P1;HPM_P2
2021/01/20 00:01:46;;;;;;;;;;;18.80;35.00;;;;;;480312;246;2147;-54
2021/01/20 00:03:48;;;;;;;;;;;18.80;35.00;;;;;;480127;246;986;-54
2021/01/20 00:05:49;;;;;;;;;;;18.80;35.00;;;;;;480323;246;1178;-54
2021/01/20 00:07:50;;;;;;;;;;;18.80;35.00;;;;;;480171;247;1328;-54
2021/01/20 00:09:51;;;;;;;;;;;18.80;35.00;;;;;;480199;247;1043;-54
2021/01/20 00:11:53;;;;;;;;;;;18.80;35.00;;;;;;480206;246;1082;-54
2021/01/20 00:13:54;;;;;;;;;;;18.80;35.00;;;;;;480209;246;1025;-54
2021/01/20 00:15:55;;;;;;;;;;;18.80;35.00;;;;;;480220;246;1107;-53
2021/01/20 00:17:57;;;;;;;;;;;18.80;35.00;;;;;;480133;247;1048;-53
2021/01/20 00:19:58;;;;;;;;;;;18.80;35.10;;;;;;480145;246;1052;-53
2021/01/20 00:21:59;;;;;;;;;;;18.80;35.00;;;;;;480182;246;2190;-54
2021/01/20 00:24:00;;;;;;;;;;;18.80;35.00;;;;;;480149;247;1209;-54
2021/01/20 00:26:02;;;;;;;;;;;18.80;35.00;;;;;;480111;246;981;-54
2021/01/20 00:28:03;;;;;;;;;;;18.80;35.00;;;;;;480104;246;982;-54
2021/01/20 00:30:04;;;;;;;;;;;18.80;35.00;;;;;;480173;247;1110;-53
2021/01/20 00:32:05;;;;;;;;;;;18.80;35.00;;;;;;480154;246;1021;-54
2021/01/20 00:34:08;;;;;;;;;;;18.80;35.00;;;;;;480181;247;1064;-53
2021/01/20 00:36:09;;;;;;;;;;;18.80;35.00;;;;;;480118;247;1121;-54
2021/01/20 00:38:11;;;;;;;;;;;18.80;35.00;;;;;;480116;247;1165;-54
2021/01/20 00:40:12;;;;;;;;;;;18.80;35.00;;;;;;480236;246;1021;-54
2021/01/20 00:42:13;;;;;;;;;;;18.90;35.00;;;;;;480127;246;2146;-54
2021/01/20 00:44:15;;;;;;;;;;;18.90;35.00;;;;;;480215;246;1060;-54
2021/01/20 00:46:16;;;;;;;;;;;18.90;35.00;;;;;;480106;246;1059;-54
2021/01/20 00:48:17;;;;;;;;;;;18.90;35.00;;;;;;480096;247;993;-53
2021/01/20 00:50:18;;;;;;;;;;;18.90;35.00;;;;;;480155;247;1240;-53
2021/01/20 00:52:20;;;;;;;;;;;18.90;35.00;;;;;;480123;247;1077;-54
2021/01/20 00:54:21;;;;;;;;;;;18.90;33.70;;;;;;480179;246;1192;-53
2021/01/20 00:56:22;;;;;;;;;;;18.90;35.00;;;;;;480300;246;1102;-54
2021/01/20 00:58:23;;;;;;;;;;;18.90;35.00;;;;;;480241;246;978;-54
2021/01/20 01:00:25;;;;;;;;;;;18.90;35.00;;;;;;480183;247;1035;-54
2021/01/20 01:02:26;;;;;;;;;;;18.90;34.90;;;;;;480165;246;2186;-54
2021/01/20 01:04:27;;;;;;;;;;;19.00;35.00;;;;;;480245;246;1077;-54
2021/01/20 01:06:29;;;;;;;;;;;19.00;35.00;;;;;;480207;246;991;-54
2021/01/20 01:08:30;;;;;;;;;;;19.00;35.00;;;;;;480246;246;1177;-54
2021/01/20 01:10:31;;;;;;;;;;;19.00;35.00;;;;;;480157;247;985;-54
2021/01/20 01:12:32;;;;;;;;;;;18.90;34.90;;;;;;480259;246;1053;-53
2021/01/20 01:14:35;;;;;;;;;;;19.00;35.00;;;;;;480210;246;941;-54
2021/01/20 01:16:35;;;;;;;;;;;19.00;35.00;;;;;;480305;246;959;-54
2021/01/20 01:18:37;;;;;;;;;;;19.00;35.00;;;;;;480118;246;1000;-54
2021/01/20 01:20:38;;;;;;;;;;;19.00;34.90;;;;;;480309;246;1055;-54
2021/01/20 01:22:39;;;;;;;;;;;19.00;34.90;;;;;;480172;246;2178;-54
2021/01/20 01:24:41;;;;;;;;;;;19.00;34.90;;;;;;480159;246;1079;-52
2021/01/20 01:26:42;;;;;;;;;;;19.00;34.90;;;;;;480182;246;1058;-54
2021/01/20 01:28:43;;;;;;;;;;;19.00;34.90;;;;;;480136;247;967;-54
2021/01/20 01:30:44;;;;;;;;;;;19.00;34.90;;;;;;480336;246;1090;-54
2021/01/20 01:32:46;;;;;;;;;;;19.10;34.90;;;;;;480131;246;1060;-54
2021/01/20 01:34:47;;;;;;;;;;;19.10;34.90;;;;;;480116;247;1025;-54
2021/01/20 01:36:48;;;;;;;;;;;19.10;34.90;;;;;;480169;247;1020;-54
2021/01/20 01:38:49;;;;;;;;;;;19.10;34.90;;;;;;480327;246;1189;-53
2021/01/20 01:40:51;;;;;;;;;;;19.10;34.90;;;;;;480176;246;1108;-54
2021/01/20 01:42:52;;;;;;;;;;;19.10;34.90;;;;;;480162;246;2147;-53
2021/01/20 01:44:53;;;;;;;;;;;19.10;34.90;;;;;;480259;246;1065;-54
2021/01/20 01:46:55;;;;;;;;;;;19.10;34.90;;;;;;480197;246;989;-54
2021/01/20 01:48:56;;;;;;;;;;;19.10;34.90;;;;;;480152;247;1068;-54
2021/01/20 01:50:57;;;;;;;;;;;19.10;34.80;;;;;;480255;246;1056;-54
2021/01/20 01:52:58;;;;;;;;;;;19.10;34.80;;;;;;480167;246;1018;-54
2021/01/20 01:55:00;;;;;;;;;;;19.10;34.80;;;;;;480192;246;1167;-54
2021/01/20 01:57:02;;;;;;;;;;;19.10;34.80;;;;;;480085;246;1047;-54
2021/01/20 01:59:03;;;;;;;;;;;19.10;34.80;;;;;;480178;246;1098;-54
2021/01/20 02:01:04;;;;;;;;;;;19.20;34.80;;;;;;480172;246;1229;-53
2021/01/20 02:03:05;;;;;;;;;;;19.10;34.80;;;;;;480146;247;2189;-54
2021/01/20 02:05:07;;;;;;;;;;;19.10;34.80;;;;;;480153;246;1356;-54
2021/01/20 02:07:08;;;;;;;;;;;19.20;34.90;;;;;;480156;246;1069;-53
2021/01/20 02:09:09;;;;;;;;;;;19.20;34.80;;;;;;480332;246;1200;-54
2021/01/20 02:11:11;;;;;;;;;;;19.20;34.80;;;;;;480282;246;1027;-54
2021/01/20 02:13:12;;;;;;;;;;;19.20;34.80;;;;;;480239;246;1048;-54
2021/01/20 02:15:13;;;;;;;;;;;19.20;34.80;;;;;;480264;246;1100;-54
2021/01/20 02:17:14;;;;;;;;;;;19.20;34.80;;;;;;480130;247;974;-54
2021/01/20 02:19:16;;;;;;;;;;;19.20;34.80;;;;;;480113;247;1062;-54
2021/01/20 02:21:17;;;;;;;;;;;19.20;34.80;;;;;;480157;247;1087;-54
2021/01/20 02:23:18;;;;;;;;;;;19.20;34.80;;;;;;480158;247;2167;-54
2021/01/20 02:25:19;;;;;;;;;;;19.20;34.70;;;;;;480304;246;1216;-54
2021/01/20 02:27:21;;;;;;;;;;;19.20;34.70;;;;;;480341;246;1275;-54
2021/01/20 02:29:22;;;;;;;;;;;19.30;34.80;;;;;;480176;246;972;-54
2021/01/20 02:31:23;;;;;;;;;;;19.30;34.80;;;;;;480143;246;1035;-54
2021/01/20 02:33:25;;;;;;;;;;;19.30;34.80;;;;;;480151;246;1017;-54
2021/01/20 02:35:26;;;;;;;;;;;19.30;34.80;;;;;;480156;247;1023;-53
2021/01/20 02:37:27;;;;;;;;;;;19.30;34.80;;;;;;480275;246;963;-54
2021/01/20 02:39:28;;;;;;;;;;;19.30;34.80;;;;;;480154;246;1193;-54
2021/01/20 02:41:30;;;;;;;;;;;19.30;34.70;;;;;;480245;246;1065;-54
2021/01/20 02:43:31;;;;;;;;;;;19.30;34.80;;;;;;480303;246;2167;-54
2021/01/20 02:45:32;;;;;;;;;;;19.30;34.70;;;;;;480199;247;1007;-53
2021/01/20 02:47:33;;;;;;;;;;;19.30;34.70;;;;;;480198;246;1256;-54
2021/01/20 02:49:35;;;;;;;;;;;19.30;34.70;;;;;;480211;246;992;-54
2021/01/20 02:51:36;;;;;;;;;;;19.30;34.70;;;;;;480137;247;1101;-54
2021/01/20 02:53:37;;;;;;;;;;;19.30;34.70;;;;;;480127;247;1085;-54
2021/01/20 02:55:39;;;;;;;;;;;19.30;34.70;;;;;;480135;247;1190;-54
2021/01/20 02:57:41;;;;;;;;;;;19.40;34.70;;;;;;480171;246;1077;-54
2021/01/20 02:59:42;;;;;;;;;;;19.30;34.70;;;;;;480154;247;986;-54
2021/01/20 03:01:44;;;;;;;;;;;19.30;34.70;;;;;;480112;246;1070;-54
2021/01/20 03:03:45;;;;;;;;;;;19.40;34.70;;;;;;480133;247;2178;-54
2021/01/20 03:05:46;;;;;;;;;;;19.40;34.70;;;;;;480088;246;1020;-53
2021/01/20 03:07:48;;;;;;;;;;;19.40;34.70;;;;;;480159;247;1058;-53
2021/01/20 03:09:49;;;;;;;;;;;19.40;34.70;;;;;;480176;246;1077;-54
2021/01/20 03:11:50;;;;;;;;;;;19.40;34.70;;;;;;480090;247;1428;-53
2021/01/20 03:13:51;;;;;;;;;;;19.40;34.70;;;;;;480160;247;1051;-53
2021/01/20 03:15:53;;;;;;;;;;;19.40;34.70;;;;;;480077;247;1286;-54
2021/01/20 03:17:54;;;;;;;;;;;19.40;34.70;;;;;;480192;247;1007;-54
2021/01/20 03:19:55;;;;;;;;;;;19.40;34.70;;;;;;480198;247;1312;-54
2021/01/20 03:21:56;;;;;;;;;;;19.40;34.70;;;;;;480058;247;2186;-54
2021/01/20 03:23:58;;;;;;;;;;;19.40;34.70;;;;;;480174;246;1124;-54
2021/01/20 03:25:59;;;;;;;;;;;19.40;34.60;;;;;;480093;247;1270;-54
2021/01/20 03:28:00;;;;;;;;;;;19.40;34.60;;;;;;480191;246;1048;-54
2021/01/20 03:30:02;;;;;;;;;;;19.40;34.70;;;;;;480243;246;1029;-54
2021/01/20 03:32:03;;;;;;;;;;;19.40;34.60;;;;;;480250;246;1011;-54
2021/01/20 03:34:04;;;;;;;;;;;19.40;34.60;;;;;;480134;247;1054;-54
2021/01/20 03:36:06;;;;;;;;;;;19.40;34.60;;;;;;480268;246;940;-53
2021/01/20 03:38:08;;;;;;;;;;;19.40;34.60;;;;;;480207;246;1009;-54
2021/01/20 03:40:08;;;;;;;;;;;19.50;34.70;;;;;;480121;246;1382;-54
2021/01/20 03:42:10;;;;;;;;;;;19.40;34.60;;;;;;480126;247;2190;-54
2021/01/20 03:44:11;;;;;;;;;;;19.50;34.60;;;;;;480159;247;987;-53
2021/01/20 03:46:12;;;;;;;;;;;19.50;34.60;;;;;;480156;247;1035;-54
2021/01/20 03:48:14;;;;;;;;;;;19.50;34.60;;;;;;480146;246;952;-54
2021/01/20 03:50:15;;;;;;;;;;;19.50;33.30;;;;;;480157;246;1328;-54
2021/01/20 03:52:16;;;;;;;;;;;19.50;34.60;;;;;;480124;247;1062;-54
2021/01/20 03:54:17;;;;;;;;;;;19.50;34.60;;;;;;480225;246;1054;-54
2021/01/20 03:56:19;;;;;;;;;;;19.50;34.60;;;;;;480147;247;1211;-54
2021/01/20 03:58:20;;;;;;;;;;;19.50;34.60;;;;;;480157;247;1024;-54
2021/01/20 04:00:21;;;;;;;;;;;19.50;34.60;;;;;;480129;247;1155;-54
2021/01/20 04:02:23;;;;;;;;;;;19.50;34.60;;;;;;480147;247;2202;-54
2021/01/20 04:04:24;;;;;;;;;;;19.50;34.60;;;;;;480283;246;1063;-54
2021/01/20 04:06:25;;;;;;;;;;;19.50;34.60;;;;;;480148;247;1053;-54
2021/01/20 04:08:26;;;;;;;;;;;19.50;34.60;;;;;;480171;246;958;-54
2021/01/20 04:10:28;;;;;;;;;;;19.50;34.60;;;;;;480127;247;1325;-54
2021/01/20 04:12:29;;;;;;;;;;;19.50;34.60;;;;;;480186;247;989;-54
2021/01/20 04:14:30;;;;;;;;;;;19.60;34.60;;;;;;480158;247;1092;-54
2021/01/20 04:16:31;;;;;;;;;;;19.50;34.60;;;;;;480193;246;1111;-54
2021/01/20 04:18:33;;;;;;;;;;;19.60;34.60;;;;;;480175;247;1055;-54
2021/01/20 04:20:34;;;;;;;;;;;19.60;34.60;;;;;;479825;248;1184;-54
2021/01/20 04:22:35;;;;;;;;;;;19.50;34.50;;;;;;480106;247;2198;-54
2021/01/20 04:24:36;;;;;;;;;;;19.50;34.50;;;;;;480195;246;1079;-54
2021/01/20 04:26:38;;;;;;;;;;;19.50;34.50;;;;;;480213;246;1226;-54
2021/01/20 04:28:39;;;;;;;;;;;19.60;34.60;;;;;;480191;247;1065;-54
2021/01/20 04:30:40;;;;;;;;;;;19.60;34.50;;;;;;480123;247;1052;-54
2021/01/20 04:32:42;;;;;;;;;;;19.60;34.60;;;;;;480144;246;990;-53
2021/01/20 04:34:43;;;;;;;;;;;19.60;34.60;;;;;;480288;246;1026;-54
2021/01/20 04:36:44;;;;;;;;;;;19.60;34.60;;;;;;480223;246;1185;-54
2021/01/20 04:38:45;;;;;;;;;;;19.60;34.60;;;;;;480144;247;1213;-54
2021/01/20 04:40:47;;;;;;;;;;;19.60;34.60;;;;;;480245;246;1331;-53
2021/01/20 04:42:48;;;;;;;;;;;19.60;34.50;;;;;;480167;246;2201;-54
2021/01/20 04:44:49;;;;;;;;;;;19.60;34.50;;;;;;480472;246;1045;-53
2021/01/20 04:46:51;;;;;;;;;;;19.60;34.60;;;;;;480212;247;1073;-54
2021/01/20 04:48:54;;;;;;;;;;;19.60;34.50;;;;;;480246;246;1141;-54
2021/01/20 04:50:53;;;;;;;;;;;19.60;34.50;;;;;;479973;246;1394;-54
2021/01/20 04:52:54;;;;;;;;;;;19.60;34.50;;;;;;480065;245;1300;-54
2021/01/20 04:54:56;;;;;;;;;;;19.60;34.50;;;;;;480102;247;1011;-53
2021/01/20 04:56:57;;;;;;;;;;;19.60;34.50;;;;;;479945;246;1224;-54
2021/01/20 04:58:58;;;;;;;;;;;19.60;34.50;;;;;;480191;246;1131;-54
2021/01/20 05:01:00;;;;;;;;;;;19.60;34.50;;;;;;480068;247;1136;-54
2021/01/20 05:03:01;;;;;;;;;;;19.60;34.50;;;;;;480149;246;2158;-54
2021/01/20 05:05:02;;;;;;;;;;;19.60;34.50;;;;;;480135;246;1143;-53
2021/01/20 05:07:04;;;;;;;;;;;19.60;34.50;;;;;;480210;248;1201;-54
2021/01/20 05:09:05;;;;;;;;;;;19.60;34.50;;;;;;480090;247;1074;-54
2021/01/20 05:11:06;;;;;;;;;;;19.70;34.60;;;;;;480100;246;1218;-54
2021/01/20 05:13:07;;;;;;;;;;;19.70;34.50;;;;;;480157;246;1067;-54
2021/01/20 05:15:09;;;;;;;;;;;19.70;34.50;;;;;;480076;246;978;-53
2021/01/20 05:17:10;;;;;;;;;;;19.70;34.50;;;;;;480041;246;1079;-54
2021/01/20 05:19:11;;;;;;;;;;;19.70;34.50;;;;;;480110;246;1051;-54
2021/01/20 05:21:13;;;;;;;;;;;19.70;34.50;;;;;;480082;244;1214;-53
2021/01/20 05:23:14;;;;;;;;;;;19.70;34.50;;;;;;480089;246;2147;-54
2021/01/20 05:25:15;;;;;;;;;;;19.70;34.50;;;;;;480110;247;1105;-54
2021/01/20 05:27:16;;;;;;;;;;;19.70;34.50;;;;;;480123;246;1253;-54
2021/01/20 05:29:18;;;;;;;;;;;19.70;34.50;;;;;;480068;246;1257;-54
2021/01/20 05:31:19;;;;;;;;;;;19.70;34.50;;;;;;479986;246;1067;-54
2021/01/20 05:33:20;;;;;;;;;;;19.70;34.50;;;;;;479944;246;1070;-54
2021/01/20 05:35:21;;;;;;;;;;;19.70;34.50;;;;;;480037;247;1063;-53
2021/01/20 05:37:23;;;;;;;;;;;19.70;34.50;;;;;;480092;246;1123;-54
2021/01/20 05:39:24;;;;;;;;;;;19.70;33.10;;;;;;479916;246;1109;-54
2021/01/20 05:41:25;;;;;;;;;;;19.70;34.50;;;;;;480111;246;1051;-54
2021/01/20 05:43:27;;;;;;;;;;;19.80;34.50;;;;;;480075;246;2171;-54
2021/01/20 05:45:28;;;;;;;;;;;19.70;34.40;;;;;;480167;246;1053;-54
2021/01/20 05:47:29;;;;;;;;;;;19.70;34.40;;;;;;480060;246;1033;-54
2021/01/20 05:49:30;;;;;;;;;;;19.70;34.40;;;;;;480016;246;1063;-54
2021/01/20 05:51:32;;;;;;;;;;;19.80;34.50;;;;;;480054;246;1045;-54
2021/01/20 05:53:33;;;;;;;;;;;19.70;34.40;;;;;;480075;246;1055;-54
2021/01/20 05:55:34;;;;;;;;;;;19.70;34.40;;;;;;480000;247;980;-53
2021/01/20 05:57:35;;;;;;;;;;;19.80;34.50;;;;;;479839;246;1120;-54
2021/01/20 05:59:37;;;;;;;;;;;19.70;34.40;;;;;;479711;247;1407;-54
2021/01/20 06:01:38;;;;;;;;;;;19.80;34.50;;;;;;479808;246;982;-54
2021/01/20 06:03:39;;;;;;;;;;;19.80;34.50;;;;;;479960;246;2143;-54
2021/01/20 06:05:41;;;;;;;;;;;19.80;34.50;;;;;;479819;247;1049;-54
2021/01/20 06:07:42;;;;;;;;;;;19.80;34.40;;;;;;479939;246;1063;-54
2021/01/20 06:09:43;;;;;;;;;;;19.80;34.40;;;;;;479935;246;1028;-54
2021/01/20 06:11:44;;;;;;;;;;;19.80;34.40;;;;;;479867;246;1048;-54
2021/01/20 06:13:46;;;;;;;;;;;19.80;34.40;;;;;;479841;246;1058;-54
2021/01/20 06:15:47;;;;;;;;;;;19.80;34.40;;;;;;479783;246;1129;-54
2021/01/20 06:17:48;;;;;;;;;;;19.80;34.40;;;;;;479832;246;1081;-53
2021/01/20 06:19:49;;;;;;;;;;;19.80;34.40;;;;;;479757;247;1074;-53
2021/01/20 06:21:51;;;;;;;;;;;19.80;34.40;;;;;;479568;247;1070;-54
2021/01/20 06:23:52;;;;;;;;;;;19.80;34.40;;;;;;479816;246;2190;-54
2021/01/20 06:25:53;;;;;;;;;;;19.80;34.40;;;;;;479875;247;1199;-53
2021/01/20 06:27:55;;;;;;;;;;;19.80;34.40;;;;;;479905;246;1172;-54
2021/01/20 06:29:56;;;;;;;;;;;19.80;34.40;;;;;;479872;246;1118;-54
2021/01/20 06:31:57;;;;;;;;;;;19.80;34.40;;;;;;479783;246;1034;-54
2021/01/20 06:33:58;;;;;;;;;;;19.80;34.40;;;;;;479744;246;1304;-54
2021/01/20 06:36:00;;;;;;;;;;;19.80;33.10;;;;;;479683;246;1074;-54
2021/01/20 06:38:01;;;;;;;;;;;19.80;33.00;;;;;;479720;245;1266;-53
2021/01/20 06:40:03;;;;;;;;;;;19.80;34.40;;;;;;479835;246;1178;-54
2021/01/20 06:42:04;;;;;;;;;;;19.80;34.40;;;;;;479636;248;1553;-54
2021/01/20 06:44:05;;;;;;;;;;;19.80;34.30;;;;;;479788;246;2186;-54
2021/01/20 06:46:06;;;;;;;;;;;19.80;34.30;;;;;;479758;246;1076;-54
2021/01/20 06:48:07;;;;;;;;;;;19.90;34.40;;;;;;479748;247;1047;-54
2021/01/20 06:50:10;;;;;;;;;;;19.80;34.40;;;;;;479787;247;1568;-54
2021/01/20 06:52:10;;;;;;;;;;;19.90;34.40;;;;;;479677;248;2092;-54
2021/01/20 06:54:12;;;;;;;;;;;19.90;34.40;;;;;;479848;246;1093;-53
2021/01/20 06:56:13;;;;;;;;;;;19.80;34.40;;;;;;479684;247;1519;-54
2021/01/20 06:58:14;;;;;;;;;;;19.90;34.40;;;;;;479816;246;1126;-54
2021/01/20 07:00:15;;;;;;;;;;;19.90;34.40;;;;;;479725;246;1374;-54
2021/01/20 07:02:17;;;;;;;;;;;19.90;34.40;;;;;;479634;246;1216;-54
2021/01/20 07:04:18;;;;;;;;;;;19.90;34.40;;;;;;479785;246;2206;-54
2021/01/20 07:06:19;;;;;;;;;;;19.90;34.40;;;;;;479682;246;1555;-54
2021/01/20 07:08:20;;;;;;;;;;;19.90;34.40;;;;;;479759;246;1140;-53
2021/01/20 07:10:22;;;;;;;;;;;19.90;34.40;;;;;;479770;247;1054;-54
2021/01/20 07:12:23;;;;;;;;;;;19.90;33.10;;;;;;479738;246;1101;-54
2021/01/20 07:14:24;;;;;;;;;;;19.90;34.40;;;;;;479795;246;1192;-54
2021/01/20 07:16:26;;;;;;;;;;;19.90;34.40;;;;;;479826;246;1132;-53
2021/01/20 07:18:27;;;;;;;;;;;19.90;34.40;;;;;;479779;247;1078;-54
2021/01/20 07:20:28;;;;;;;;;;;19.90;34.40;;;;;;479604;246;1103;-54
2021/01/20 07:22:29;;;;;;;;;;;19.90;34.40;;;;;;479707;246;1133;-54
2021/01/20 07:24:31;;;;;;;;;;;19.90;34.40;;;;;;479751;247;2155;-54
2021/01/20 07:26:32;;;;;;;;;;;19.90;34.40;;;;;;479820;246;1175;-54
2021/01/20 07:28:33;;;;;;;;;;;19.90;34.30;;;;;;479657;246;1331;-54
2021/01/20 07:30:34;;;;;;;;;;;19.90;34.40;;;;;;479600;247;1204;-54
2021/01/20 07:32:36;;;;;;;;;;;19.90;34.40;;;;;;479498;247;1098;-54
2021/01/20 07:34:37;;;;;;;;;;;19.90;34.30;;;;;;479711;246;1036;-54
2021/01/20 07:36:38;;;;;;;;;;;19.90;34.30;;;;;;479657;246;1241;-54
2021/01/20 07:38:40;;;;;;;;;;;19.90;33.00;;;;;;479621;246;1225;-54
2021/01/20 07:40:41;;;;;;;;;;;19.90;34.40;;;;;;479698;246;1281;-53
2021/01/20 07:42:42;;;;;;;;;;;19.90;34.40;;;;;;479548;246;1271;-53
2021/01/20 07:44:43;;;;;;;;;;;19.90;34.30;;;;;;479624;246;2197;-54
2021/01/20 07:46:45;;;;;;;;;;;19.90;34.40;;;;;;479716;247;1293;-54
2021/01/20 07:48:46;;;;;;;;;;;20.00;34.40;;;;;;479738;246;1325;-54
2021/01/20 07:50:47;;;;;;;;;;;20.00;34.60;;;;;;479640;247;1247;-54
2021/01/20 07:52:48;;;;;;;;;;;20.00;34.40;;;;;;479576;247;1168;-54
2021/01/20 07:54:50;;;;;;;;;;;20.10;34.20;;;;;;479540;247;1063;-54
2021/01/20 07:56:51;;;;;;;;;;;20.10;34.20;;;;;;479534;246;1069;-54
2021/01/20 07:58:52;;;;;;;;;;;20.10;34.20;;;;;;479515;246;1290;-54
2021/01/20 08:00:54;;;;;;;;;;;20.00;34.20;;;;;;479504;246;1395;-54
2021/01/20 08:02:56;;;;;;;;;;;20.00;34.30;;;;;;479529;246;1107;-53
2021/01/20 08:04:56;;;;;;;;;;;19.90;34.30;;;;;;479368;248;2194;-54
2021/01/20 08:06:57;;;;;;;;;;;19.90;34.40;;;;;;479511;246;1075;-53
2021/01/20 08:08:59;;;;;;;;;;;19.90;33.10;;;;;;479528;247;1204;-53
2021/01/20 08:11:00;;;;;;;;;;;19.90;34.50;;;;;;479347;246;1304;-54
2021/01/20 08:13:01;;;;;;;;;;;19.80;34.50;;;;;;479500;246;1076;-53
2021/01/20 08:15:03;;;;;;;;;;;19.80;34.50;;;;;;479504;246;1306;-53
2021/01/20 08:17:04;;;;;;;;;;;19.70;34.60;;;;;;479582;246;1230;-53
2021/01/20 08:19:06;;;;;;;;;;;19.70;33.30;;;;;;479499;246;1101;-54
2021/01/20 08:21:08;;;;;;;;;;;19.70;34.70;;;;;;479316;246;1109;-53
2021/01/20 08:23:09;;;;;;;;;;;19.70;34.70;;;;;;479487;246;1038;-53
2021/01/20 08:25:10;;;;;;;;;;;19.60;34.70;;;;;;479491;246;2193;-54
2021/01/20 08:27:12;;;;;;;;;;;19.60;34.80;;;;;;479485;246;1083;-53
2021/01/20 08:29:13;;;;;;;;;;;19.60;34.80;;;;;;479489;246;1251;-53
2021/01/20 08:31:14;;;;;;;;;;;19.60;34.90;;;;;;479413;247;1106;-54
2021/01/20 08:33:16;;;;;;;;;;;19.50;34.80;;;;;;479481;247;1061;-54
2021/01/20 08:35:17;;;;;;;;;;;19.50;34.90;;;;;;479421;246;1067;-53
2021/01/20 08:37:18;;;;;;;;;;;19.50;35.00;;;;;;479460;246;1071;-54
2021/01/20 08:39:19;;;;;;;;;;;19.50;33.70;;;;;;479448;246;1113;-54
2021/01/20 08:41:21;;;;;;;;;;;19.50;33.70;;;;;;479226;246;1055;-54
2021/01/20 08:43:22;;;;;;;;;;;19.40;35.00;;;;;;479454;246;1114;-53
2021/01/20 08:45:24;;;;;;;;;;;19.50;33.80;;;;;;479501;247;2126;-53
2021/01/20 08:47:25;;;;;;;;;;;19.40;35.10;;;;;;479377;248;1797;-54
2021/01/20 08:49:26;;;;;;;;;;;19.40;35.10;;;;;;479539;247;1047;-53
2021/01/20 08:51:28;;;;;;;;;;;19.40;35.10;;;;;;479498;246;1103;-53
2021/01/20 08:53:29;;;;;;;;;;;19.40;35.20;;;;;;479513;247;1221;-54
2021/01/20 08:55:30;;;;;;;;;;;19.40;35.30;;;;;;479528;247;1089;-53
2021/01/20 08:57:32;;;;;;;;;;;19.40;35.30;;;;;;479501;246;1121;-53
2021/01/20 08:59:33;;;;;;;;;;;19.40;35.30;;;;;;479500;246;1164;-54
2021/01/20 09:01:34;;;;;;;;;;;19.30;35.30;;;;;;479417;246;1487;-53
2021/01/20 09:03:35;;;;;;;;;;;19.40;35.30;;;;;;479495;246;1063;-54
2021/01/20 09:05:37;;;;;;;;;;;19.30;34.00;;;;;;479427;247;2199;-53
2021/01/20 09:07:39;;;;;;;;;;;19.30;35.30;;;;;;479432;247;1061;-54
2021/01/20 09:09:39;;;;;;;;;;;19.40;35.40;;;;;;479335;248;2261;-53
2021/01/20 09:11:40;;;;;;;;;;;19.30;35.30;;;;;;479449;246;1115;-53
2021/01/20 09:13:42;;;;;;;;;;;19.30;35.40;;;;;;479472;246;1047;-53
2021/01/20 09:15:43;;;;;;;;;;;19.30;35.30;;;;;;479079;246;1283;-53
2021/01/20 09:17:44;;;;;;;;;;;19.30;35.30;;;;;;479332;247;1109;-54
2021/01/20 09:19:46;;;;;;;;;;;19.30;35.40;;;;;;479540;246;1221;-53
2021/01/20 09:21:47;;;;;;;;;;;19.30;35.40;;;;;;479410;246;1271;-53
2021/01/20 09:23:48;;;;;;;;;;;19.30;35.40;;;;;;479491;246;1064;-54
2021/01/20 09:25:51;;;;;;;;;;;19.30;35.40;;;;;;479099;246;2142;-54
2021/01/20 09:27:52;;;;;;;;;;;19.30;34.10;;;;;;479513;247;1108;-53
2021/01/20 09:29:53;;;;;;;;;;;19.30;35.40;;;;;;479481;246;1332;-53
2021/01/20 09:31:55;;;;;;;;;;;19.30;35.40;;;;;;479279;247;1076;-54
2021/01/20 09:33:56;;;;;;;;;;;19.30;35.40;;;;;;479478;246;1035;-53
2021/01/20 09:35:57;;;;;;;;;;;19.30;35.40;;;;;;479470;246;1087;-53
2021/01/20 09:37:58;;;;;;;;;;;19.30;35.40;;;;;;479440;246;1182;-54
2021/01/20 09:40:00;;;;;;;;;;;19.30;35.40;;;;;;479377;246;1089;-53
2021/01/20 09:42:01;;;;;;;;;;;19.30;35.40;;;;;;479438;246;1059;-53
2021/01/20 09:44:02;;;;;;;;;;;19.30;35.40;;;;;;479339;246;1106;-53
2021/01/20 09:46:03;;;;;;;;;;;19.30;34.20;;;;;;479173;246;2178;-54
2021/01/20 09:48:06;;;;;;;;;;;19.30;35.50;;;;;;479347;246;1081;-54
2021/01/20 09:50:07;;;;;;;;;;;19.30;35.50;;;;;;479314;246;1126;-53
2021/01/20 09:52:10;;;;;;;;;;;19.30;35.50;;;;;;479355;246;1195;-53
2021/01/20 09:54:09;;;;;;;;;;;19.30;35.50;;;;;;479042;248;1575;-54
2021/01/20 09:56:10;;;;;;;;;;;19.20;35.50;;;;;;479189;246;1233;-53
2021/01/20 09:58:12;;;;;;;;;;;19.20;35.50;;;;;;479142;247;1141;-54
2021/01/20 10:00:13;;;;;;;;;;;19.20;35.50;;;;;;479250;247;1124;-53
2021/01/20 10:02:14;;;;;;;;;;;19.20;34.20;;;;;;479304;247;1049;-53
2021/01/20 10:04:15;;;;;;;;;;;19.20;35.50;;;;;;479363;246;2143;-53
2021/01/20 10:06:17;;;;;;;;;;;19.20;35.50;;;;;;479158;246;1152;-53
2021/01/20 10:08:18;;;;;;;;;;;19.20;35.50;;;;;;479283;246;1058;-54
2021/01/20 10:10:19;;;;;;;;;;;19.20;35.50;;;;;;479171;246;1041;-53
2021/01/20 10:12:20;;;;;;;;;;;19.20;35.50;;;;;;479198;247;1049;-54
2021/01/20 10:14:22;;;;;;;;;;;19.20;35.50;;;;;;479342;246;1065;-53
2021/01/20 10:16:23;;;;;;;;;;;19.20;35.50;;;;;;479296;246;1213;-53
2021/01/20 10:18:24;;;;;;;;;;;19.20;35.50;;;;;;479061;246;1207;-53
2021/01/20 10:20:26;;;;;;;;;;;19.20;35.50;;;;;;479244;246;1294;-53
2021/01/20 10:22:27;;;;;;;;;;;19.20;35.50;;;;;;479292;246;1294;-54
2021/01/20 10:24:28;;;;;;;;;;;19.20;35.50;;;;;;479395;247;2194;-53
2021/01/20 10:26:29;;;;;;;;;;;19.20;35.50;;;;;;479504;247;1047;-54
2021/01/20 10:28:31;;;;;;;;;;;19.20;35.50;;;;;;479468;246;1140;-53
2021/01/20 10:30:32;;;;;;;;;;;19.20;35.50;;;;;;479366;246;1224;-54
2021/01/20 10:32:33;;;;;;;;;;;19.20;35.50;;;;;;479348;245;1227;-53
2021/01/20 10:34:35;;;;;;;;;;;19.20;35.50;;;;;;479419;246;1364;-53
2021/01/20 10:36:36;;;;;;;;;;;19.20;35.50;;;;;;479347;247;1062;-53
2021/01/20 10:38:37;;;;;;;;;;;19.10;34.20;;;;;;479326;246;1132;-53
2021/01/20 10:40:39;;;;;;;;;;;19.20;35.50;;;;;;479428;247;1081;-54
2021/01/20 10:42:40;;;;;;;;;;;19.20;35.50;;;;;;479273;246;1058;-53
2021/01/20 10:44:41;;;;;;;;;;;19.10;34.10;;;;;;479503;246;2131;-54
2021/01/20 10:46:43;;;;;;;;;;;19.10;34.10;;;;;;479414;246;1172;-53
2021/01/20 10:48:44;;;;;;;;;;;19.20;35.50;;;;;;479468;247;1092;-54
2021/01/20 10:50:45;;;;;;;;;;;19.10;35.50;;;;;;479405;246;1063;-54
2021/01/20 10:52:46;;;;;;;;;;;19.20;35.50;;;;;;479226;246;1063;-53
2021/01/20 10:54:48;;;;;;;;;;;19.10;34.10;;;;;;479303;245;1361;-53
2021/01/20 10:56:49;;;;;;;;;;;19.10;35.50;;;;;;479376;246;1065;-54
2021/01/20 10:58:50;;;;;;;;;;;19.10;35.50;;;;;;479346;247;1051;-53
2021/01/20 11:00:51;;;;;;;;;;;19.10;35.50;;;;;;479415;246;1249;-54
2021/01/20 11:02:53;;;;;;;;;;;19.10;35.40;;;;;;479441;247;1046;-54
2021/01/20 11:04:54;;;;;;;;;;;19.10;35.40;;;;;;479557;246;2146;-54
2021/01/20 11:06:56;;;;;;;;;;;19.10;35.40;;;;;;479457;246;1164;-53
2021/01/20 11:08:59;;;;;;;;;;;19.10;34.10;;;;;;479505;246;1063;-54
2021/01/20 11:10:58;;;;;;;;;;;19.10;35.50;;;;;;479307;248;1477;-53
2021/01/20 11:13:07;;;;;;;;;;;19.10;35.50;;;;;;479263;246;1148;-54
2021/01/20 11:15:01;;;;;;;;;;;19.10;34.10;;;;;;478906;248;1432;-54
2021/01/20 11:17:02;;;;;;;;;;;19.10;35.50;;;;;;479356;247;1226;-53
2021/01/20 11:19:03;;;;;;;;;;;19.10;35.50;;;;;;479468;246;1099;-53
2021/01/20 11:21:05;;;;;;;;;;;19.10;35.50;;;;;;479399;247;1401;-54
2021/01/20 11:23:07;;;;;;;;;;;19.10;35.50;;;;;;479409;247;1118;-53
2021/01/20 11:25:08;;;;;;;;;;;19.10;35.50;;;;;;479448;246;2174;-53
2021/01/20 11:27:10;;;;;;;;;;;19.10;35.50;;;;;;479411;246;1149;-53
2021/01/20 11:29:11;;;;;;;;;;;19.10;34.20;;;;;;479392;246;981;-53
2021/01/20 11:31:12;;;;;;;;;;;19.10;35.50;;;;;;479148;246;1271;-53
2021/01/20 11:33:13;;;;;;;;;;;19.10;35.50;;;;;;479351;246;1028;-53
2021/01/20 11:35:15;;;;;;;;;;;19.10;35.50;;;;;;479541;243;1426;-53
2021/01/20 11:37:16;;;;;;;;;;;19.10;35.50;;;;;;479592;246;1171;-53
2021/01/20 11:39:17;;;;;;;;;;;19.10;35.40;;;;;;479552;246;1031;-54
2021/01/20 11:41:19;;;;;;;;;;;19.10;34.10;;;;;;479382;246;1235;-53
2021/01/20 11:43:20;;;;;;;;;;;19.10;35.50;;;;;;479444;247;1081;-54
2021/01/20 11:45:21;;;;;;;;;;;19.10;35.40;;;;;;479455;245;2131;-54
2021/01/20 11:47:22;;;;;;;;;;;19.10;34.10;;;;;;479559;246;1199;-54
2021/01/20 11:49:24;;;;;;;;;;;19.10;35.40;;;;;;479512;246;1486;-54
2021/01/20 11:51:25;;;;;;;;;;;19.10;35.40;;;;;;479324;246;1142;-54
2021/01/20 11:53:26;;;;;;;;;;;19.10;35.40;;;;;;479403;246;1361;-53
2021/01/20 11:55:27;;;;;;;;;;;19.10;35.40;;;;;;479518;247;1031;-53
2021/01/20 11:57:29;;;;;;;;;;;19.10;34.00;;;;;;479614;246;1266;-53